sensor_id;sensor_type;location;lat;lon;timestamp;temperature;humidity
64855;DHT22;51321;50.428;8.378;2023-10-08T00:01:48;15.20;99.90
64855;DHT22;51321;50.428;8.378;2023-10-08T00:04:30;15.20;99.90
64855;DHT22;51321;50.428;8.378;2023-10-08T00:07:10;15.30;99.90
64855;DHT22;51321;50.428;8.378;2023-10-08T00:09:50;15.20;99.90
64855;DHT22;51321;50.428;8.378;2023-10-08T00:12:33;15.20;99.90
64855;DHT22;51321;50.428;8.378;2023-10-08T00:15:13;15.20;99.90
64855;DHT22;51321;50.428;8.378;2023-10-08T00:17:54;15.20;99.90
64855;DHT22;51321;50.428;8.378;2023-10-08T00:20:35;15.20;99.90
64855;DHT22;51321;50.428;8.378;2023-10-08T00:23:21;15.20;99.90
64855;DHT22;51321;50.428;8.378;2023-10-08T00:26:04;15.10;99.90
64855;DHT22;51321;50.428;8.378;2023-10-08T00:28:46;15.20;99.90
64855;DHT22;51321;50.428;8.378;2023-10-08T00:31:29;15.20;99.90
64855;DHT22;51321;50.428;8.378;2023-10-08T00:34:11;15.20;99.90
64855;DHT22;51321;50.428;8.378;2023-10-08T00:36:53;15.30;99.90
64855;DHT22;51321;50.428;8.378;2023-10-08T00:39:33;15.30;99.90
64855;DHT22;51321;50.428;8.378;2023-10-08T00:42:16;15.20;99.90
64855;DHT22;51321;50.428;8.378;2023-10-08T00:44:58;15.10;99.90
64855;DHT22;51321;50.428;8.378;2023-10-08T00:47:40;15.10;99.90
64855;DHT22;51321;50.428;8.378;2023-10-08T00:50:22;15.00;99.90
64855;DHT22;51321;50.428;8.378;2023-10-08T00:53:10;15.00;99.90
64855;DHT22;51321;50.428;8.378;2023-10-08T00:55:56;15.00;99.90
64855;DHT22;51321;50.428;8.378;2023-10-08T00:58:44;14.90;99.90
64855;DHT22;51321;50.428;8.378;2023-10-08T01:01:27;14.80;99.90
64855;DHT22;51321;50.428;8.378;2023-10-08T01:04:07;14.90;99.90
64855;DHT22;51321;50.428;8.378;2023-10-08T01:06:50;14.80;99.90
64855;DHT22;51321;50.428;8.378;2023-10-08T01:09:34;14.90;99.90
64855;DHT22;51321;50.428;8.378;2023-10-08T01:12:17;14.80;99.90
64855;DHT22;51321;50.428;8.378;2023-10-08T01:15:01;14.70;99.90
64855;DHT22;51321;50.428;8.378;2023-10-08T01:17:53;14.70;99.90
64855;DHT22;51321;50.428;8.378;2023-10-08T01:20:38;14.80;99.90
64855;DHT22;51321;50.428;8.378;2023-10-08T01:23:30;14.70;99.90
64855;DHT22;51321;50.428;8.378;2023-10-08T01:26:11;14.60;99.90
64855;DHT22;51321;50.428;8.378;2023-10-08T01:28:52;14.70;99.90
64855;DHT22;51321;50.428;8.378;2023-10-08T01:31:32;14.70;99.90
64855;DHT22;51321;50.428;8.378;2023-10-08T01:34:13;14.50;99.90
64855;DHT22;51321;50.428;8.378;2023-10-08T01:36:56;14.50;99.90
64855;DHT22;51321;50.428;8.378;2023-10-08T01:39:41;14.40;99.90
64855;DHT22;51321;50.428;8.378;2023-10-08T01:42:22;14.30;99.90
64855;DHT22;51321;50.428;8.378;2023-10-08T01:45:03;14.40;99.90
64855;DHT22;51321;50.428;8.378;2023-10-08T01:47:46;14.30;99.90
64855;DHT22;51321;50.428;8.378;2023-10-08T01:50:32;14.30;99.90
64855;DHT22;51321;50.428;8.378;2023-10-08T01:53:16;14.20;99.90
64855;DHT22;51321;50.428;8.378;2023-10-08T01:56:01;14.20;99.90
64855;DHT22;51321;50.428;8.378;2023-10-08T01:58:43;14.20;99.90
64855;DHT22;51321;50.428;8.378;2023-10-08T02:01:24;14.10;99.90
64855;DHT22;51321;50.428;8.378;2023-10-08T02:04:05;14.10;99.90
64855;DHT22;51321;50.428;8.378;2023-10-08T02:06:46;14.10;99.90
64855;DHT22;51321;50.428;8.378;2023-10-08T02:09:27;14.10;99.90
64855;DHT22;51321;50.428;8.378;2023-10-08T02:12:09;14.00;99.90
64855;DHT22;51321;50.428;8.378;2023-10-08T02:14:49;14.00;99.90
64855;DHT22;51321;50.428;8.378;2023-10-08T02:17:30;14.10;99.90
64855;DHT22;51321;50.428;8.378;2023-10-08T02:20:12;14.20;99.90
64855;DHT22;51321;50.428;8.378;2023-10-08T02:22:54;14.20;99.90
64855;DHT22;51321;50.428;8.378;2023-10-08T02:25:34;14.20;99.90
64855;DHT22;51321;50.428;8.378;2023-10-08T02:28:16;14.10;99.90
64855;DHT22;51321;50.428;8.378;2023-10-08T02:30:59;14.10;99.90
64855;DHT22;51321;50.428;8.378;2023-10-08T02:33:40;14.10;99.90
64855;DHT22;51321;50.428;8.378;2023-10-08T02:36:21;14.10;99.90
64855;DHT22;51321;50.428;8.378;2023-10-08T02:39:01;14.10;99.90
64855;DHT22;51321;50.428;8.378;2023-10-08T02:41:45;14.20;99.90
64855;DHT22;51321;50.428;8.378;2023-10-08T02:44:27;14.20;99.90
64855;DHT22;51321;50.428;8.378;2023-10-08T02:47:07;14.20;99.90
64855;DHT22;51321;50.428;8.378;2023-10-08T02:49:48;14.20;99.90
64855;DHT22;51321;50.428;8.378;2023-10-08T02:52:31;14.20;99.90
64855;DHT22;51321;50.428;8.378;2023-10-08T02:55:11;14.20;99.90
64855;DHT22;51321;50.428;8.378;2023-10-08T02:58:03;14.10;99.90
64855;DHT22;51321;50.428;8.378;2023-10-08T03:00:46;14.00;99.90
64855;DHT22;51321;50.428;8.378;2023-10-08T03:03:26;13.90;99.90
64855;DHT22;51321;50.428;8.378;2023-10-08T03:06:07;14.00;99.90
64855;DHT22;51321;50.428;8.378;2023-10-08T03:08:50;13.90;99.90
64855;DHT22;51321;50.428;8.378;2023-10-08T03:11:31;13.90;99.90
64855;DHT22;51321;50.428;8.378;2023-10-08T03:14:12;13.80;99.90
64855;DHT22;51321;50.428;8.378;2023-10-08T03:17:02;13.80;99.90
64855;DHT22;51321;50.428;8.378;2023-10-08T03:19:46;13.80;99.90
64855;DHT22;51321;50.428;8.378;2023-10-08T03:22:27;13.80;99.90
64855;DHT22;51321;50.428;8.378;2023-10-08T03:25:12;13.70;99.90
64855;DHT22;51321;50.428;8.378;2023-10-08T03:27:55;13.80;99.90
64855;DHT22;51321;50.428;8.378;2023-10-08T03:30:39;13.80;99.90
64855;DHT22;51321;50.428;8.378;2023-10-08T03:33:30;13.80;99.90
64855;DHT22;51321;50.428;8.378;2023-10-08T03:36:13;13.70;99.90
64855;DHT22;51321;50.428;8.378;2023-10-08T03:39:00;13.70;99.90
64855;DHT22;51321;50.428;8.378;2023-10-08T03:41:50;13.70;99.90
64855;DHT22;51321;50.428;8.378;2023-10-08T03:44:45;13.70;99.90
64855;DHT22;51321;50.428;8.378;2023-10-08T03:47:29;13.80;99.90
64855;DHT22;51321;50.428;8.378;2023-10-08T03:50:13;13.90;99.90
64855;DHT22;51321;50.428;8.378;2023-10-08T03:52:56;13.90;99.90
64855;DHT22;51321;50.428;8.378;2023-10-08T03:55:37;13.90;99.90
64855;DHT22;51321;50.428;8.378;2023-10-08T03:58:19;13.80;99.90
64855;DHT22;51321;50.428;8.378;2023-10-08T04:01:08;13.80;99.90
64855;DHT22;51321;50.428;8.378;2023-10-08T04:03:49;13.80;99.90
64855;DHT22;51321;50.428;8.378;2023-10-08T04:06:39;13.80;99.90
64855;DHT22;51321;50.428;8.378;2023-10-08T04:09:28;13.80;99.90
64855;DHT22;51321;50.428;8.378;2023-10-08T04:12:10;13.80;99.90
64855;DHT22;51321;50.428;8.378;2023-10-08T04:14:50;13.80;99.90
64855;DHT22;51321;50.428;8.378;2023-10-08T04:17:34;13.80;99.90
64855;DHT22;51321;50.428;8.378;2023-10-08T04:20:22;13.80;99.90
64855;DHT22;51321;50.428;8.378;2023-10-08T04:23:14;13.80;99.90
64855;DHT22;51321;50.428;8.378;2023-10-08T04:25:57;13.70;99.90
64855;DHT22;51321;50.428;8.378;2023-10-08T04:28:38;13.60;99.90
64855;DHT22;51321;50.428;8.378;2023-10-08T04:31:20;13.60;99.90
64855;DHT22;51321;50.428;8.378;2023-10-08T04:34:04;13.60;99.90
64855;DHT22;51321;50.428;8.378;2023-10-08T04:36:49;13.50;99.90
64855;DHT22;51321;50.428;8.378;2023-10-08T04:39:34;13.50;99.90
64855;DHT22;51321;50.428;8.378;2023-10-08T04:42:18;13.60;99.90
64855;DHT22;51321;50.428;8.378;2023-10-08T04:45:05;13.70;99.90
64855;DHT22;51321;50.428;8.378;2023-10-08T04:47:50;13.80;99.90
64855;DHT22;51321;50.428;8.378;2023-10-08T04:50:31;13.80;99.90
64855;DHT22;51321;50.428;8.378;2023-10-08T04:53:11;13.80;99.90
64855;DHT22;51321;50.428;8.378;2023-10-08T04:55:56;13.70;99.90
64855;DHT22;51321;50.428;8.378;2023-10-08T04:58:36;13.70;99.90
64855;DHT22;51321;50.428;8.378;2023-10-08T05:01:19;13.60;99.90
64855;DHT22;51321;50.428;8.378;2023-10-08T05:04:06;13.60;99.90
64855;DHT22;51321;50.428;8.378;2023-10-08T05:07:05;13.60;99.90
64855;DHT22;51321;50.428;8.378;2023-10-08T05:10:00;13.70;99.90
64855;DHT22;51321;50.428;8.378;2023-10-08T05:13:12;13.60;99.90
64855;DHT22;51321;50.428;8.378;2023-10-08T05:15:56;13.60;99.90
64855;DHT22;51321;50.428;8.378;2023-10-08T05:18:51;13.70;99.90
64855;DHT22;51321;50.428;8.378;2023-10-08T05:21:46;13.70;99.90
64855;DHT22;51321;50.428;8.378;2023-10-08T05:24:41;13.60;99.90
64855;DHT22;51321;50.428;8.378;2023-10-08T05:27:30;13.60;99.90
64855;DHT22;51321;50.428;8.378;2023-10-08T05:30:30;13.70;99.90
64855;DHT22;51321;50.428;8.378;2023-10-08T05:33:19;13.70;99.90
64855;DHT22;51321;50.428;8.378;2023-10-08T05:36:04;13.70;99.90
64855;DHT22;51321;50.428;8.378;2023-10-08T05:38:50;13.70;99.90
64855;DHT22;51321;50.428;8.378;2023-10-08T05:41:39;13.80;99.90
64855;DHT22;51321;50.428;8.378;2023-10-08T05:44:30;13.80;99.90
64855;DHT22;51321;50.428;8.378;2023-10-08T05:47:19;13.80;99.90
64855;DHT22;51321;50.428;8.378;2023-10-08T05:50:17;13.70;99.90
64855;DHT22;51321;50.428;8.378;2023-10-08T05:53:18;13.80;99.90
64855;DHT22;51321;50.428;8.378;2023-10-08T05:56:22;13.80;99.90
64855;DHT22;51321;50.428;8.378;2023-10-08T05:59:07;13.80;99.90
64855;DHT22;51321;50.428;8.378;2023-10-08T06:01:57;14.00;99.90
64855;DHT22;51321;50.428;8.378;2023-10-08T06:04:58;13.90;99.90
64855;DHT22;51321;50.428;8.378;2023-10-08T06:08:02;13.90;99.90
64855;DHT22;51321;50.428;8.378;2023-10-08T06:10:52;13.80;99.90
64855;DHT22;51321;50.428;8.378;2023-10-08T06:13:40;13.80;99.90
64855;DHT22;51321;50.428;8.378;2023-10-08T06:16:29;13.80;99.90
64855;DHT22;51321;50.428;8.378;2023-10-08T06:19:22;13.90;99.90
64855;DHT22;51321;50.428;8.378;2023-10-08T06:22:03;13.80;99.90
64855;DHT22;51321;50.428;8.378;2023-10-08T06:24:44;13.80;99.90
64855;DHT22;51321;50.428;8.378;2023-10-08T06:27:24;13.80;99.90
64855;DHT22;51321;50.428;8.378;2023-10-08T06:30:05;13.80;99.90
64855;DHT22;51321;50.428;8.378;2023-10-08T06:32:55;13.90;99.90
64855;DHT22;51321;50.428;8.378;2023-10-08T06:35:36;14.00;99.90
64855;DHT22;51321;50.428;8.378;2023-10-08T06:38:18;14.00;99.90
64855;DHT22;51321;50.428;8.378;2023-10-08T06:40:58;14.00;99.90
64855;DHT22;51321;50.428;8.378;2023-10-08T06:43:40;14.10;99.90
64855;DHT22;51321;50.428;8.378;2023-10-08T06:46:22;14.10;99.90
64855;DHT22;51321;50.428;8.378;2023-10-08T06:49:06;14.10;99.90
64855;DHT22;51321;50.428;8.378;2023-10-08T06:51:51;14.10;99.90
64855;DHT22;51321;50.428;8.378;2023-10-08T06:54:34;14.20;99.90
64855;DHT22;51321;50.428;8.378;2023-10-08T06:57:14;14.40;99.90
64855;DHT22;51321;50.428;8.378;2023-10-08T06:59:59;14.50;99.90
64855;DHT22;51321;50.428;8.378;2023-10-08T07:02:40;14.50;99.90
64855;DHT22;51321;50.428;8.378;2023-10-08T07:05:20;14.50;99.90
64855;DHT22;51321;50.428;8.378;2023-10-08T07:08:01;14.50;99.90
64855;DHT22;51321;50.428;8.378;2023-10-08T07:10:47;14.60;99.90
64855;DHT22;51321;50.428;8.378;2023-10-08T07:13:27;14.60;99.90
64855;DHT22;51321;50.428;8.378;2023-10-08T07:16:09;14.70;99.90
64855;DHT22;51321;50.428;8.378;2023-10-08T07:18:50;14.90;99.90
64855;DHT22;51321;50.428;8.378;2023-10-08T07:21:31;14.90;99.90
64855;DHT22;51321;50.428;8.378;2023-10-08T07:24:23;15.00;99.90
64855;DHT22;51321;50.428;8.378;2023-10-08T07:27:04;15.10;99.90
64855;DHT22;51321;50.428;8.378;2023-10-08T07:29:48;15.10;99.90
64855;DHT22;51321;50.428;8.378;2023-10-08T07:32:28;15.20;99.90
64855;DHT22;51321;50.428;8.378;2023-10-08T07:35:09;15.20;99.90
64855;DHT22;51321;50.428;8.378;2023-10-08T07:38:02;15.30;99.90
64855;DHT22;51321;50.428;8.378;2023-10-08T07:40:48;15.40;99.90
64855;DHT22;51321;50.428;8.378;2023-10-08T07:43:30;15.40;99.90
64855;DHT22;51321;50.428;8.378;2023-10-08T07:46:11;15.50;99.90
64855;DHT22;51321;50.428;8.378;2023-10-08T07:48:54;15.50;99.90
64855;DHT22;51321;50.428;8.378;2023-10-08T07:51:37;15.60;99.90
64855;DHT22;51321;50.428;8.378;2023-10-08T07:54:18;15.80;99.90
64855;DHT22;51321;50.428;8.378;2023-10-08T07:56:58;15.80;99.90
64855;DHT22;51321;50.428;8.378;2023-10-08T07:59:49;16.00;99.90
64855;DHT22;51321;50.428;8.378;2023-10-08T08:02:33;16.10;99.90
64855;DHT22;51321;50.428;8.378;2023-10-08T08:05:14;16.40;99.90
64855;DHT22;51321;50.428;8.378;2023-10-08T08:07:56;16.50;99.90
64855;DHT22;51321;50.428;8.378;2023-10-08T08:10:38;16.60;99.90
64855;DHT22;51321;50.428;8.378;2023-10-08T08:13:21;16.60;99.90
64855;DHT22;51321;50.428;8.378;2023-10-08T08:16:03;16.60;99.90
64855;DHT22;51321;50.428;8.378;2023-10-08T08:18:55;16.70;99.90
64855;DHT22;51321;50.428;8.378;2023-10-08T08:21:36;16.70;99.90
64855;DHT22;51321;50.428;8.378;2023-10-08T08:24:16;16.80;99.90
64855;DHT22;51321;50.428;8.378;2023-10-08T08:27:08;17.00;99.90
64855;DHT22;51321;50.428;8.378;2023-10-08T08:29:50;17.30;99.90
64855;DHT22;51321;50.428;8.378;2023-10-08T08:32:36;17.60;99.90
64855;DHT22;51321;50.428;8.378;2023-10-08T08:35:18;17.80;99.90
64855;DHT22;51321;50.428;8.378;2023-10-08T08:37:58;17.80;99.90
64855;DHT22;51321;50.428;8.378;2023-10-08T08:40:39;17.80;99.90
64855;DHT22;51321;50.428;8.378;2023-10-08T08:43:20;17.60;99.90
64855;DHT22;51321;50.428;8.378;2023-10-08T08:46:01;17.60;99.90
64855;DHT22;51321;50.428;8.378;2023-10-08T08:48:43;17.50;99.90
64855;DHT22;51321;50.428;8.378;2023-10-08T08:51:24;17.60;99.90
64855;DHT22;51321;50.428;8.378;2023-10-08T08:54:05;17.60;99.90
64855;DHT22;51321;50.428;8.378;2023-10-08T08:56:46;17.60;99.90
64855;DHT22;51321;50.428;8.378;2023-10-08T08:59:26;17.70;99.90
64855;DHT22;51321;50.428;8.378;2023-10-08T09:02:09;17.90;99.90
64855;DHT22;51321;50.428;8.378;2023-10-08T09:04:54;18.10;99.90
64855;DHT22;51321;50.428;8.378;2023-10-08T09:07:34;18.10;99.90
64855;DHT22;51321;50.428;8.378;2023-10-08T09:10:15;18.20;99.90
64855;DHT22;51321;50.428;8.378;2023-10-08T09:12:57;18.20;99.90
64855;DHT22;51321;50.428;8.378;2023-10-08T09:15:38;18.40;99.90
64855;DHT22;51321;50.428;8.378;2023-10-08T09:18:20;18.50;99.90
64855;DHT22;51321;50.428;8.378;2023-10-08T09:21:08;18.80;99.90
64855;DHT22;51321;50.428;8.378;2023-10-08T09:23:51;18.90;99.90
64855;DHT22;51321;50.428;8.378;2023-10-08T09:26:33;18.90;99.90
64855;DHT22;51321;50.428;8.378;2023-10-08T09:29:16;18.90;99.90
64855;DHT22;51321;50.428;8.378;2023-10-08T09:31:57;18.80;99.90
64855;DHT22;51321;50.428;8.378;2023-10-08T09:34:37;18.80;99.90
64855;DHT22;51321;50.428;8.378;2023-10-08T09:37:18;18.80;99.90
64855;DHT22;51321;50.428;8.378;2023-10-08T09:40:01;18.70;99.90
64855;DHT22;51321;50.428;8.378;2023-10-08T09:42:47;18.80;99.90
64855;DHT22;51321;50.428;8.378;2023-10-08T09:45:27;18.90;99.90
64855;DHT22;51321;50.428;8.378;2023-10-08T09:48:10;19.10;99.90
64855;DHT22;51321;50.428;8.378;2023-10-08T09:50:51;19.60;99.90
64855;DHT22;51321;50.428;8.378;2023-10-08T09:53:40;20.20;99.90
64855;DHT22;51321;50.428;8.378;2023-10-08T09:56:23;20.60;99.90
64855;DHT22;51321;50.428;8.378;2023-10-08T09:59:04;20.70;99.90
64855;DHT22;51321;50.428;8.378;2023-10-08T10:01:46;20.40;99.90
64855;DHT22;51321;50.428;8.378;2023-10-08T10:04:29;20.20;99.90
64855;DHT22;51321;50.428;8.378;2023-10-08T10:07:11;20.10;99.90
64855;DHT22;51321;50.428;8.378;2023-10-08T10:09:53;20.20;99.90
64855;DHT22;51321;50.428;8.378;2023-10-08T10:12:34;20.30;99.90
64855;DHT22;51321;50.428;8.378;2023-10-08T10:15:14;20.40;99.90
64855;DHT22;51321;50.428;8.378;2023-10-08T10:17:58;20.50;99.90
64855;DHT22;51321;50.428;8.378;2023-10-08T10:20:39;20.80;99.90
64855;DHT22;51321;50.428;8.378;2023-10-08T10:23:36;21.10;99.90
64855;DHT22;51321;50.428;8.378;2023-10-08T10:26:24;21.20;99.90
64855;DHT22;51321;50.428;8.378;2023-10-08T10:29:20;21.40;99.90
64855;DHT22;51321;50.428;8.378;2023-10-08T10:32:01;21.40;99.90
64855;DHT22;51321;50.428;8.378;2023-10-08T10:34:44;21.30;99.90
64855;DHT22;51321;50.428;8.378;2023-10-08T10:37:27;21.00;99.90
64855;DHT22;51321;50.428;8.378;2023-10-08T10:40:20;20.80;99.90
64855;DHT22;51321;50.428;8.378;2023-10-08T10:43:09;20.60;99.90
64855;DHT22;51321;50.428;8.378;2023-10-08T10:45:50;20.50;99.90
64855;DHT22;51321;50.428;8.378;2023-10-08T10:48:34;20.40;99.90
64855;DHT22;51321;50.428;8.378;2023-10-08T10:51:18;20.40;99.90
64855;DHT22;51321;50.428;8.378;2023-10-08T10:53:59;20.40;99.90
64855;DHT22;51321;50.428;8.378;2023-10-08T10:56:46;20.20;99.90
64855;DHT22;51321;50.428;8.378;2023-10-08T10:59:36;20.00;99.90
64855;DHT22;51321;50.428;8.378;2023-10-08T11:02:16;19.90;99.90
64855;DHT22;51321;50.428;8.378;2023-10-08T11:05:09;20.00;99.90
64855;DHT22;51321;50.428;8.378;2023-10-08T11:07:59;20.00;99.90
64855;DHT22;51321;50.428;8.378;2023-10-08T11:10:44;20.40;99.90
64855;DHT22;51321;50.428;8.378;2023-10-08T11:13:28;20.80;99.90
64855;DHT22;51321;50.428;8.378;2023-10-08T11:16:17;21.20;99.90
64855;DHT22;51321;50.428;8.378;2023-10-08T11:19:01;21.40;99.90
64855;DHT22;51321;50.428;8.378;2023-10-08T11:21:48;21.60;99.90
64855;DHT22;51321;50.428;8.378;2023-10-08T11:24:29;21.70;99.90
64855;DHT22;51321;50.428;8.378;2023-10-08T11:27:13;21.50;99.90
64855;DHT22;51321;50.428;8.378;2023-10-08T11:29:56;21.30;99.90
64855;DHT22;51321;50.428;8.378;2023-10-08T11:32:38;21.30;99.90
64855;DHT22;51321;50.428;8.378;2023-10-08T11:35:20;21.50;99.90
64855;DHT22;51321;50.428;8.378;2023-10-08T11:38:00;21.70;99.90
64855;DHT22;51321;50.428;8.378;2023-10-08T11:40:42;22.00;99.90
64855;DHT22;51321;50.428;8.378;2023-10-08T11:43:28;22.20;99.90
64855;DHT22;51321;50.428;8.378;2023-10-08T11:46:08;22.00;99.90
64855;DHT22;51321;50.428;8.378;2023-10-08T11:48:55;21.60;99.90
64855;DHT22;51321;50.428;8.378;2023-10-08T11:51:37;21.50;99.90
64855;DHT22;51321;50.428;8.378;2023-10-08T11:54:19;21.50;99.90
64855;DHT22;51321;50.428;8.378;2023-10-08T11:57:02;21.60;99.90
64855;DHT22;51321;50.428;8.378;2023-10-08T11:59:43;21.50;99.90
64855;DHT22;51321;50.428;8.378;2023-10-08T12:02:25;21.30;99.90
64855;DHT22;51321;50.428;8.378;2023-10-08T12:05:07;21.30;99.90
64855;DHT22;51321;50.428;8.378;2023-10-08T12:07:57;21.30;99.90
64855;DHT22;51321;50.428;8.378;2023-10-08T12:10:38;21.10;99.90
64855;DHT22;51321;50.428;8.378;2023-10-08T12:13:20;21.00;99.90
64855;DHT22;51321;50.428;8.378;2023-10-08T12:16:03;20.90;99.90
64855;DHT22;51321;50.428;8.378;2023-10-08T12:18:51;20.70;99.90
64855;DHT22;51321;50.428;8.378;2023-10-08T12:21:39;20.50;99.90
64855;DHT22;51321;50.428;8.378;2023-10-08T12:24:20;20.50;99.90
64855;DHT22;51321;50.428;8.378;2023-10-08T12:27:00;20.50;99.90
64855;DHT22;51321;50.428;8.378;2023-10-08T12:29:42;20.60;99.90
64855;DHT22;51321;50.428;8.378;2023-10-08T12:32:23;20.80;99.90
64855;DHT22;51321;50.428;8.378;2023-10-08T12:35:05;21.00;99.90
64855;DHT22;51321;50.428;8.378;2023-10-08T12:37:53;21.20;99.90
64855;DHT22;51321;50.428;8.378;2023-10-08T12:40:34;21.30;99.90
64855;DHT22;51321;50.428;8.378;2023-10-08T12:43:26;21.40;99.90
64855;DHT22;51321;50.428;8.378;2023-10-08T12:46:07;21.30;99.90
64855;DHT22;51321;50.428;8.378;2023-10-08T12:48:50;21.10;99.90
64855;DHT22;51321;50.428;8.378;2023-10-08T12:51:33;21.20;99.90
64855;DHT22;51321;50.428;8.378;2023-10-08T12:54:15;21.20;99.90
64855;DHT22;51321;50.428;8.378;2023-10-08T12:57:01;21.40;99.90
64855;DHT22;51321;50.428;8.378;2023-10-08T12:59:45;21.60;99.90
64855;DHT22;51321;50.428;8.378;2023-10-08T13:02:31;21.40;99.90
64855;DHT22;51321;50.428;8.378;2023-10-08T13:05:13;20.90;99.90
64855;DHT22;51321;50.428;8.378;2023-10-08T13:07:55;20.60;99.90
64855;DHT22;51321;50.428;8.378;2023-10-08T13:10:37;20.50;99.90
64855;DHT22;51321;50.428;8.378;2023-10-08T13:13:20;20.20;99.90
64855;DHT22;51321;50.428;8.378;2023-10-08T13:16:05;20.10;99.90
64855;DHT22;51321;50.428;8.378;2023-10-08T13:18:47;19.90;99.90
64855;DHT22;51321;50.428;8.378;2023-10-08T13:21:27;19.60;99.90
64855;DHT22;51321;50.428;8.378;2023-10-08T13:24:08;19.40;99.90
64855;DHT22;51321;50.428;8.378;2023-10-08T13:26:49;19.10;99.90
64855;DHT22;51321;50.428;8.378;2023-10-08T13:29:30;18.90;99.90
64855;DHT22;51321;50.428;8.378;2023-10-08T13:32:12;18.90;99.90
64855;DHT22;51321;50.428;8.378;2023-10-08T13:34:56;18.80;99.90
64855;DHT22;51321;50.428;8.378;2023-10-08T13:37:37;18.80;99.90
64855;DHT22;51321;50.428;8.378;2023-10-08T13:40:17;18.80;99.90
64855;DHT22;51321;50.428;8.378;2023-10-08T13:42:59;18.80;99.90
64855;DHT22;51321;50.428;8.378;2023-10-08T13:45:39;18.60;99.90
64855;DHT22;51321;50.428;8.378;2023-10-08T13:48:21;18.60;99.90
64855;DHT22;51321;50.428;8.378;2023-10-08T13:51:03;18.60;99.90
64855;DHT22;51321;50.428;8.378;2023-10-08T13:53:47;18.60;99.90
64855;DHT22;51321;50.428;8.378;2023-10-08T13:56:31;18.60;99.90
64855;DHT22;51321;50.428;8.378;2023-10-08T13:59:13;18.60;99.90
64855;DHT22;51321;50.428;8.378;2023-10-08T14:01:53;18.50;99.90
64855;DHT22;51321;50.428;8.378;2023-10-08T14:04:35;18.40;99.90
64855;DHT22;51321;50.428;8.378;2023-10-08T14:07:19;18.40;99.90
64855;DHT22;51321;50.428;8.378;2023-10-08T14:10:00;18.40;99.90
64855;DHT22;51321;50.428;8.378;2023-10-08T14:12:44;18.30;99.90
64855;DHT22;51321;50.428;8.378;2023-10-08T14:15:29;18.20;99.90
64855;DHT22;51321;50.428;8.378;2023-10-08T14:18:11;18.20;99.90
64855;DHT22;51321;50.428;8.378;2023-10-08T14:20:55;18.10;99.90
64855;DHT22;51321;50.428;8.378;2023-10-08T14:23:36;18.20;99.90
64855;DHT22;51321;50.428;8.378;2023-10-08T14:26:18;18.20;99.90
64855;DHT22;51321;50.428;8.378;2023-10-08T14:29:00;18.10;99.90
64855;DHT22;51321;50.428;8.378;2023-10-08T14:31:48;18.00;99.90
64855;DHT22;51321;50.428;8.378;2023-10-08T14:34:28;17.90;99.90
64855;DHT22;51321;50.428;8.378;2023-10-08T14:37:25;17.80;99.90
64855;DHT22;51321;50.428;8.378;2023-10-08T14:40:23;17.80;99.90
64855;DHT22;51321;50.428;8.378;2023-10-08T14:43:22;17.70;99.90
64855;DHT22;51321;50.428;8.378;2023-10-08T14:46:03;17.70;99.90
64855;DHT22;51321;50.428;8.378;2023-10-08T14:48:45;17.60;99.90
64855;DHT22;51321;50.428;8.378;2023-10-08T14:51:25;17.70;99.90
64855;DHT22;51321;50.428;8.378;2023-10-08T14:54:06;17.70;99.90
64855;DHT22;51321;50.428;8.378;2023-10-08T14:56:47;17.70;99.90
64855;DHT22;51321;50.428;8.378;2023-10-08T14:59:28;17.80;99.90
64855;DHT22;51321;50.428;8.378;2023-10-08T15:02:09;17.80;99.90
64855;DHT22;51321;50.428;8.378;2023-10-08T15:04:51;18.00;99.90
64855;DHT22;51321;50.428;8.378;2023-10-08T15:07:32;18.00;99.90
64855;DHT22;51321;50.428;8.378;2023-10-08T15:10:12;17.90;99.90
64855;DHT22;51321;50.428;8.378;2023-10-08T15:12:53;17.90;99.90
64855;DHT22;51321;50.428;8.378;2023-10-08T15:15:34;17.80;99.90
64855;DHT22;51321;50.428;8.378;2023-10-08T15:18:15;17.80;99.90
64855;DHT22;51321;50.428;8.378;2023-10-08T15:20:58;17.70;99.90
64855;DHT22;51321;50.428;8.378;2023-10-08T15:23:39;17.70;99.90
64855;DHT22;51321;50.428;8.378;2023-10-08T15:26:19;17.60;99.90
64855;DHT22;51321;50.428;8.378;2023-10-08T15:28:59;17.60;99.90
64855;DHT22;51321;50.428;8.378;2023-10-08T15:31:41;17.60;99.90
64855;DHT22;51321;50.428;8.378;2023-10-08T15:34:24;17.60;99.90
64855;DHT22;51321;50.428;8.378;2023-10-08T15:37:06;17.40;99.90
64855;DHT22;51321;50.428;8.378;2023-10-08T15:39:47;17.20;99.90
64855;DHT22;51321;50.428;8.378;2023-10-08T15:42:27;17.20;99.90
64855;DHT22;51321;50.428;8.378;2023-10-08T15:45:08;17.20;99.90
64855;DHT22;51321;50.428;8.378;2023-10-08T15:47:51;17.20;99.90
64855;DHT22;51321;50.428;8.378;2023-10-08T15:50:32;17.20;99.90
64855;DHT22;51321;50.428;8.378;2023-10-08T15:53:13;17.10;99.90
64855;DHT22;51321;50.428;8.378;2023-10-08T15:55:53;16.90;99.90
64855;DHT22;51321;50.428;8.378;2023-10-08T15:58:35;16.70;99.90
64855;DHT22;51321;50.428;8.378;2023-10-08T16:01:15;16.60;99.90
64855;DHT22;51321;50.428;8.378;2023-10-08T16:03:55;16.60;99.90
64855;DHT22;51321;50.428;8.378;2023-10-08T16:06:36;16.60;99.90
64855;DHT22;51321;50.428;8.378;2023-10-08T16:09:17;16.60;99.90
64855;DHT22;51321;50.428;8.378;2023-10-08T16:12:01;16.60;99.90
64855;DHT22;51321;50.428;8.378;2023-10-08T16:14:41;16.60;99.90
64855;DHT22;51321;50.428;8.378;2023-10-08T16:17:22;16.60;99.90
64855;DHT22;51321;50.428;8.378;2023-10-08T16:20:04;16.50;99.90
64855;DHT22;51321;50.428;8.378;2023-10-08T16:22:52;16.50;99.90
64855;DHT22;51321;50.428;8.378;2023-10-08T16:25:34;16.40;99.90
64855;DHT22;51321;50.428;8.378;2023-10-08T16:28:15;16.40;99.90
64855;DHT22;51321;50.428;8.378;2023-10-08T16:30:57;16.40;99.90
64855;DHT22;51321;50.428;8.378;2023-10-08T16:33:37;16.40;99.90
64855;DHT22;51321;50.428;8.378;2023-10-08T16:36:18;16.40;99.90
64855;DHT22;51321;50.428;8.378;2023-10-08T16:38:59;16.20;99.90
64855;DHT22;51321;50.428;8.378;2023-10-08T16:41:41;16.20;99.90
64855;DHT22;51321;50.428;8.378;2023-10-08T16:44:21;16.20;99.90
64855;DHT22;51321;50.428;8.378;2023-10-08T16:47:02;16.10;99.90
64855;DHT22;51321;50.428;8.378;2023-10-08T16:49:42;16.00;99.90
64855;DHT22;51321;50.428;8.378;2023-10-08T16:52:23;16.00;99.90
64855;DHT22;51321;50.428;8.378;2023-10-08T16:55:04;15.90;99.90
64855;DHT22;51321;50.428;8.378;2023-10-08T16:57:46;15.80;99.90
64855;DHT22;51321;50.428;8.378;2023-10-08T17:00:28;15.60;99.90
64855;DHT22;51321;50.428;8.378;2023-10-08T17:03:09;15.50;99.90
64855;DHT22;51321;50.428;8.378;2023-10-08T17:05:49;15.40;99.90
64855;DHT22;51321;50.428;8.378;2023-10-08T17:08:29;15.30;99.90
64855;DHT22;51321;50.428;8.378;2023-10-08T17:11:12;15.30;99.90
64855;DHT22;51321;50.428;8.378;2023-10-08T17:13:54;15.20;99.90